Upper Bern, Pennsylvania
Current Conditions -  °F | °C
As of 10:54 AM on Monday 22 Dec 2014 (Local Time) from KRDG Reporting Station
Clear Clear  
Wind Chill: 28°   Ceiling: Unl
Heat Index: 35°   Visibility: 9mi
Dew Point: 27°   Wind: 9mph
Humidity: 72%   Direction: 10°N
Pressure: 30.27"   Gusts: NA
Location:  40.4645°N, 76.1345°W
Report Text: KRDG 221554Z AUTO 01008KT 9SM CLR 02/M03 A3027 RMK AO2 PRESFR SLP260 T00171028
Loading
Personal Weather Stations






























Interactive Weather Map New forecast layout! Learn more

10-Day Weather Forecast

Advertisements
Track Severe Weather on mobile